sensor_id;sensor_type;location;lat;lon;timestamp;temperature;humidity
32839;DHT22;19182;41.820;12.808;2023-06-10T00:01:45;20.30;99.90
32839;DHT22;19182;41.820;12.808;2023-06-10T00:04:13;20.20;99.90
32839;DHT22;19182;41.820;12.808;2023-06-10T00:06:41;20.20;99.90
32839;DHT22;19182;41.820;12.808;2023-06-10T00:09:07;20.10;99.90
32839;DHT22;19182;41.820;12.808;2023-06-10T00:11:40;20.10;99.90
32839;DHT22;19182;41.820;12.808;2023-06-10T00:14:06;20.10;99.90
32839;DHT22;19182;41.820;12.808;2023-06-10T00:16:33;20.10;99.90
32839;DHT22;19182;41.820;12.808;2023-06-10T00:19:00;20.00;99.90
32839;DHT22;19182;41.820;12.808;2023-06-10T00:21:27;20.00;99.90
32839;DHT22;19182;41.820;12.808;2023-06-10T00:23:55;20.00;99.90
32839;DHT22;19182;41.820;12.808;2023-06-10T00:26:22;19.90;99.90
32839;DHT22;19182;41.820;12.808;2023-06-10T00:28:47;19.90;99.90
32839;DHT22;19182;41.820;12.808;2023-06-10T00:31:13;19.90;99.90
32839;DHT22;19182;41.820;12.808;2023-06-10T00:33:40;19.80;99.90
32839;DHT22;19182;41.820;12.808;2023-06-10T00:36:07;19.80;99.90
32839;DHT22;19182;41.820;12.808;2023-06-10T00:38:33;19.80;99.90
32839;DHT22;19182;41.820;12.808;2023-06-10T00:40:58;19.80;99.90
32839;DHT22;19182;41.820;12.808;2023-06-10T00:43:25;20.00;99.90
32839;DHT22;19182;41.820;12.808;2023-06-10T00:45:53;19.70;99.90
32839;DHT22;19182;41.820;12.808;2023-06-10T00:48:19;19.60;99.90
32839;DHT22;19182;41.820;12.808;2023-06-10T00:50:47;19.70;99.90
32839;DHT22;19182;41.820;12.808;2023-06-10T00:53:13;19.70;99.90
32839;DHT22;19182;41.820;12.808;2023-06-10T00:55:41;19.70;99.90
32839;DHT22;19182;41.820;12.808;2023-06-10T00:58:07;19.70;99.90
32839;DHT22;19182;41.820;12.808;2023-06-10T01:00:36;19.70;99.90
32839;DHT22;19182;41.820;12.808;2023-06-10T01:03:03;19.70;99.90
32839;DHT22;19182;41.820;12.808;2023-06-10T01:05:34;19.70;99.90
32839;DHT22;19182;41.820;12.808;2023-06-10T01:08:09;19.70;99.90
32839;DHT22;19182;41.820;12.808;2023-06-10T01:10:43;19.70;99.90
32839;DHT22;19182;41.820;12.808;2023-06-10T01:13:12;19.70;99.90
32839;DHT22;19182;41.820;12.808;2023-06-10T01:15:39;19.80;99.90
32839;DHT22;19182;41.820;12.808;2023-06-10T01:18:09;19.80;99.90
32839;DHT22;19182;41.820;12.808;2023-06-10T01:20:37;19.80;99.90
32839;DHT22;19182;41.820;12.808;2023-06-10T01:23:06;19.90;99.90
32839;DHT22;19182;41.820;12.808;2023-06-10T01:25:34;19.90;99.90
32839;DHT22;19182;41.820;12.808;2023-06-10T01:28:18;19.90;99.90
32839;DHT22;19182;41.820;12.808;2023-06-10T01:31:16;19.80;99.90
32839;DHT22;19182;41.820;12.808;2023-06-10T01:33:45;19.80;99.90
32839;DHT22;19182;41.820;12.808;2023-06-10T01:36:15;19.70;99.90
32839;DHT22;19182;41.820;12.808;2023-06-10T01:38:46;19.70;99.90
32839;DHT22;19182;41.820;12.808;2023-06-10T01:41:17;19.70;99.90
32839;DHT22;19182;41.820;12.808;2023-06-10T01:43:44;19.70;99.90
32839;DHT22;19182;41.820;12.808;2023-06-10T01:46:10;19.70;99.90
32839;DHT22;19182;41.820;12.808;2023-06-10T01:48:37;19.60;99.90
32839;DHT22;19182;41.820;12.808;2023-06-10T01:51:04;19.60;99.90
32839;DHT22;19182;41.820;12.808;2023-06-10T01:53:29;19.60;99.90
32839;DHT22;19182;41.820;12.808;2023-06-10T01:55:56;19.50;99.90
32839;DHT22;19182;41.820;12.808;2023-06-10T01:58:22;19.40;99.90
32839;DHT22;19182;41.820;12.808;2023-06-10T02:00:47;19.40;99.90
32839;DHT22;19182;41.820;12.808;2023-06-10T02:03:13;19.30;99.90
32839;DHT22;19182;41.820;12.808;2023-06-10T02:05:40;19.30;99.90
32839;DHT22;19182;41.820;12.808;2023-06-10T02:08:06;19.30;99.90
32839;DHT22;19182;41.820;12.808;2023-06-10T02:10:33;18.60;99.90
32839;DHT22;19182;41.820;12.808;2023-06-10T02:12:59;19.50;99.90
32839;DHT22;19182;41.820;12.808;2023-06-10T02:15:25;19.40;99.90
32839;DHT22;19182;41.820;12.808;2023-06-10T02:17:52;19.40;99.90
32839;DHT22;19182;41.820;12.808;2023-06-10T02:20:18;19.40;99.90
32839;DHT22;19182;41.820;12.808;2023-06-10T02:22:44;19.40;99.90
32839;DHT22;19182;41.820;12.808;2023-06-10T02:25:11;19.40;99.90
32839;DHT22;19182;41.820;12.808;2023-06-10T02:27:36;19.30;99.90
32839;DHT22;19182;41.820;12.808;2023-06-10T02:30:04;19.30;99.90
32839;DHT22;19182;41.820;12.808;2023-06-10T02:32:31;19.20;99.90
32839;DHT22;19182;41.820;12.808;2023-06-10T02:34:58;19.20;99.90
32839;DHT22;19182;41.820;12.808;2023-06-10T02:37:26;19.10;99.90
32839;DHT22;19182;41.820;12.808;2023-06-10T02:39:53;19.10;99.90
32839;DHT22;19182;41.820;12.808;2023-06-10T02:42:19;19.10;99.90
32839;DHT22;19182;41.820;12.808;2023-06-10T02:44:45;19.20;99.90
32839;DHT22;19182;41.820;12.808;2023-06-10T02:47:11;19.20;99.90
32839;DHT22;19182;41.820;12.808;2023-06-10T02:49:38;19.20;99.90
32839;DHT22;19182;41.820;12.808;2023-06-10T02:52:04;19.30;99.90
32839;DHT22;19182;41.820;12.808;2023-06-10T02:54:30;19.30;99.90
32839;DHT22;19182;41.820;12.808;2023-06-10T02:56:55;19.20;99.90
32839;DHT22;19182;41.820;12.808;2023-06-10T02:59:22;19.10;99.90
32839;DHT22;19182;41.820;12.808;2023-06-10T03:01:48;19.00;99.90
32839;DHT22;19182;41.820;12.808;2023-06-10T03:04:15;18.90;99.90
32839;DHT22;19182;41.820;12.808;2023-06-10T03:06:42;18.90;99.90
32839;DHT22;19182;41.820;12.808;2023-06-10T03:09:07;18.90;99.90
32839;DHT22;19182;41.820;12.808;2023-06-10T03:11:33;18.80;99.90
32839;DHT22;19182;41.820;12.808;2023-06-10T03:14:00;18.80;99.90
32839;DHT22;19182;41.820;12.808;2023-06-10T03:16:26;18.70;99.90
32839;DHT22;19182;41.820;12.808;2023-06-10T03:18:53;18.70;99.90
32839;DHT22;19182;41.820;12.808;2023-06-10T03:21:18;18.70;99.90
32839;DHT22;19182;41.820;12.808;2023-06-10T03:23:45;18.70;99.90
32839;DHT22;19182;41.820;12.808;2023-06-10T03:26:11;18.70;99.90
32839;DHT22;19182;41.820;12.808;2023-06-10T03:28:39;18.60;99.90
32839;DHT22;19182;41.820;12.808;2023-06-10T03:31:04;18.60;99.90
32839;DHT22;19182;41.820;12.808;2023-06-10T03:33:31;18.60;99.90
32839;DHT22;19182;41.820;12.808;2023-06-10T03:35:57;18.40;99.90
32839;DHT22;19182;41.820;12.808;2023-06-10T03:38:23;18.30;99.90
32839;DHT22;19182;41.820;12.808;2023-06-10T03:40:49;18.30;99.90
32839;DHT22;19182;41.820;12.808;2023-06-10T03:43:15;18.20;99.90
32839;DHT22;19182;41.820;12.808;2023-06-10T03:45:40;18.20;99.90
32839;DHT22;19182;41.820;12.808;2023-06-10T03:48:06;17.90;99.90
32839;DHT22;19182;41.820;12.808;2023-06-10T03:50:34;17.90;99.90
32839;DHT22;19182;41.820;12.808;2023-06-10T03:53:01;18.70;99.90
32839;DHT22;19182;41.820;12.808;2023-06-10T03:55:27;18.00;99.90
32839;DHT22;19182;41.820;12.808;2023-06-10T03:57:54;17.90;99.90
32839;DHT22;19182;41.820;12.808;2023-06-10T04:00:20;17.90;99.90
32839;DHT22;19182;41.820;12.808;2023-06-10T04:02:47;17.90;99.90
32839;DHT22;19182;41.820;12.808;2023-06-10T04:05:16;17.90;99.90
32839;DHT22;19182;41.820;12.808;2023-06-10T04:07:42;17.70;99.90
32839;DHT22;19182;41.820;12.808;2023-06-10T04:10:10;17.40;99.90
32839;DHT22;19182;41.820;12.808;2023-06-10T04:12:36;17.50;99.90
32839;DHT22;19182;41.820;12.808;2023-06-10T04:15:04;17.40;99.90
32839;DHT22;19182;41.820;12.808;2023-06-10T04:17:30;17.50;99.90
32839;DHT22;19182;41.820;12.808;2023-06-10T04:19:57;17.50;99.90
32839;DHT22;19182;41.820;12.808;2023-06-10T04:22:23;17.20;99.90
32839;DHT22;19182;41.820;12.808;2023-06-10T04:24:49;17.30;99.90
32839;DHT22;19182;41.820;12.808;2023-06-10T04:27:14;17.10;99.90
32839;DHT22;19182;41.820;12.808;2023-06-10T04:29:41;17.00;99.90
32839;DHT22;19182;41.820;12.808;2023-06-10T04:32:08;17.10;99.90
32839;DHT22;19182;41.820;12.808;2023-06-10T04:34:34;17.20;99.90
32839;DHT22;19182;41.820;12.808;2023-06-10T04:37:01;17.20;99.90
32839;DHT22;19182;41.820;12.808;2023-06-10T04:39:27;17.20;99.90
32839;DHT22;19182;41.820;12.808;2023-06-10T04:41:52;17.10;99.90
32839;DHT22;19182;41.820;12.808;2023-06-10T04:44:18;17.30;99.90
32839;DHT22;19182;41.820;12.808;2023-06-10T04:46:44;17.40;99.90
32839;DHT22;19182;41.820;12.808;2023-06-10T04:49:11;17.00;99.90
32839;DHT22;19182;41.820;12.808;2023-06-10T04:51:40;17.60;99.90
32839;DHT22;19182;41.820;12.808;2023-06-10T04:54:06;17.90;99.90
32839;DHT22;19182;41.820;12.808;2023-06-10T04:56:32;20.20;99.90
32839;DHT22;19182;41.820;12.808;2023-06-10T04:59:00;18.40;99.90
32839;DHT22;19182;41.820;12.808;2023-06-10T05:01:26;18.50;99.90
32839;DHT22;19182;41.820;12.808;2023-06-10T05:03:53;18.70;99.90
32839;DHT22;19182;41.820;12.808;2023-06-10T05:06:20;18.90;99.90
32839;DHT22;19182;41.820;12.808;2023-06-10T05:08:46;19.10;99.90
32839;DHT22;19182;41.820;12.808;2023-06-10T05:11:12;19.20;99.90
32839;DHT22;19182;41.820;12.808;2023-06-10T05:13:41;19.40;99.90
32839;DHT22;19182;41.820;12.808;2023-06-10T05:16:06;19.40;99.90
32839;DHT22;19182;41.820;12.808;2023-06-10T05:18:33;19.40;99.90
32839;DHT22;19182;41.820;12.808;2023-06-10T05:20:58;19.50;99.90
32839;DHT22;19182;41.820;12.808;2023-06-10T05:23:24;19.50;99.90
32839;DHT22;19182;41.820;12.808;2023-06-10T05:25:51;19.60;99.90
32839;DHT22;19182;41.820;12.808;2023-06-10T05:28:17;19.50;99.90
32839;DHT22;19182;41.820;12.808;2023-06-10T05:30:43;19.70;99.90
32839;DHT22;19182;41.820;12.808;2023-06-10T05:33:09;19.70;99.90
32839;DHT22;19182;41.820;12.808;2023-06-10T05:35:36;19.80;99.90
32839;DHT22;19182;41.820;12.808;2023-06-10T05:38:02;20.10;99.90
32839;DHT22;19182;41.820;12.808;2023-06-10T05:40:28;19.40;99.90
32839;DHT22;19182;41.820;12.808;2023-06-10T05:42:54;20.30;99.90
32839;DHT22;19182;41.820;12.808;2023-06-10T05:45:19;20.60;99.90
32839;DHT22;19182;41.820;12.808;2023-06-10T05:47:45;20.60;99.90
32839;DHT22;19182;41.820;12.808;2023-06-10T05:50:11;20.70;99.90
32839;DHT22;19182;41.820;12.808;2023-06-10T05:52:36;20.90;99.90
32839;DHT22;19182;41.820;12.808;2023-06-10T05:55:04;21.00;99.90
32839;DHT22;19182;41.820;12.808;2023-06-10T05:57:30;21.10;99.90
32839;DHT22;19182;41.820;12.808;2023-06-10T05:59:56;21.10;99.90
32839;DHT22;19182;41.820;12.808;2023-06-10T06:02:22;21.30;99.90
32839;DHT22;19182;41.820;12.808;2023-06-10T06:04:48;21.40;99.90
32839;DHT22;19182;41.820;12.808;2023-06-10T06:07:14;21.10;99.90
32839;DHT22;19182;41.820;12.808;2023-06-10T06:09:39;21.10;99.90
32839;DHT22;19182;41.820;12.808;2023-06-10T06:12:07;20.90;99.90
32839;DHT22;19182;41.820;12.808;2023-06-10T06:14:36;20.90;99.90
32839;DHT22;19182;41.820;12.808;2023-06-10T06:17:03;21.00;99.90
32839;DHT22;19182;41.820;12.808;2023-06-10T06:19:30;21.20;99.90
32839;DHT22;19182;41.820;12.808;2023-06-10T06:21:57;21.20;99.90
32839;DHT22;19182;41.820;12.808;2023-06-10T06:24:23;21.30;99.90
32839;DHT22;19182;41.820;12.808;2023-06-10T06:26:50;21.40;99.90
32839;DHT22;19182;41.820;12.808;2023-06-10T06:29:16;21.30;99.90
32839;DHT22;19182;41.820;12.808;2023-06-10T06:31:42;21.70;99.90
32839;DHT22;19182;41.820;12.808;2023-06-10T06:34:09;21.90;99.90
32839;DHT22;19182;41.820;12.808;2023-06-10T06:36:35;22.20;99.90
32839;DHT22;19182;41.820;12.808;2023-06-10T06:39:00;22.30;99.90
32839;DHT22;19182;41.820;12.808;2023-06-10T06:41:26;22.50;99.90
32839;DHT22;19182;41.820;12.808;2023-06-10T06:43:56;22.70;99.90
32839;DHT22;19182;41.820;12.808;2023-06-10T06:46:22;22.80;99.90
32839;DHT22;19182;41.820;12.808;2023-06-10T06:48:49;22.60;99.90
32839;DHT22;19182;41.820;12.808;2023-06-10T06:51:14;22.60;99.90
32839;DHT22;19182;41.820;12.808;2023-06-10T06:53:40;22.60;99.90
32839;DHT22;19182;41.820;12.808;2023-06-10T06:56:11;22.80;99.90
32839;DHT22;19182;41.820;12.808;2023-06-10T06:58:37;23.10;99.90
32839;DHT22;19182;41.820;12.808;2023-06-10T07:01:03;23.60;99.90
32839;DHT22;19182;41.820;12.808;2023-06-10T07:03:28;23.90;99.90
32839;DHT22;19182;41.820;12.808;2023-06-10T07:05:54;24.30;99.90
32839;DHT22;19182;41.820;12.808;2023-06-10T07:08:20;24.70;99.90
32839;DHT22;19182;41.820;12.808;2023-06-10T07:10:46;25.00;99.90
32839;DHT22;19182;41.820;12.808;2023-06-10T07:13:11;25.30;99.90
32839;DHT22;19182;41.820;12.808;2023-06-10T07:15:38;25.80;99.90
32839;DHT22;19182;41.820;12.808;2023-06-10T07:18:03;26.10;99.90
32839;DHT22;19182;41.820;12.808;2023-06-10T07:20:29;27.10;99.90
32839;DHT22;19182;41.820;12.808;2023-06-10T07:22:55;26.60;99.90
32839;DHT22;19182;41.820;12.808;2023-06-10T07:25:21;26.40;99.90
32839;DHT22;19182;41.820;12.808;2023-06-10T07:27:46;26.70;99.90
32839;DHT22;19182;41.820;12.808;2023-06-10T07:30:12;26.80;99.90
32839;DHT22;19182;41.820;12.808;2023-06-10T07:32:38;26.90;99.90
32839;DHT22;19182;41.820;12.808;2023-06-10T07:35:06;27.10;99.90
32839;DHT22;19182;41.820;12.808;2023-06-10T07:37:32;27.20;99.90
32839;DHT22;19182;41.820;12.808;2023-06-10T07:39:58;27.20;99.90
32839;DHT22;19182;41.820;12.808;2023-06-10T07:42:23;27.40;99.90
32839;DHT22;19182;41.820;12.808;2023-06-10T07:44:49;27.70;99.90
32839;DHT22;19182;41.820;12.808;2023-06-10T07:47:15;28.00;99.90
32839;DHT22;19182;41.820;12.808;2023-06-10T07:49:40;28.00;99.90
32839;DHT22;19182;41.820;12.808;2023-06-10T07:52:07;27.90;99.90
32839;DHT22;19182;41.820;12.808;2023-06-10T07:54:33;27.80;99.90
32839;DHT22;19182;41.820;12.808;2023-06-10T07:56:58;27.70;99.90
32839;DHT22;19182;41.820;12.808;2023-06-10T07:59:24;27.60;99.90
32839;DHT22;19182;41.820;12.808;2023-06-10T08:01:52;27.60;99.90
32839;DHT22;19182;41.820;12.808;2023-06-10T08:04:18;27.60;99.90
32839;DHT22;19182;41.820;12.808;2023-06-10T08:06:44;27.60;99.90
32839;DHT22;19182;41.820;12.808;2023-06-10T08:09:09;27.50;99.90
32839;DHT22;19182;41.820;12.808;2023-06-10T08:11:35;27.20;99.90
32839;DHT22;19182;41.820;12.808;2023-06-10T08:14:01;27.20;99.90
32839;DHT22;19182;41.820;12.808;2023-06-10T08:16:27;27.00;99.90
32839;DHT22;19182;41.820;12.808;2023-06-10T08:18:53;27.20;99.90
32839;DHT22;19182;41.820;12.808;2023-06-10T08:21:19;27.40;99.90
32839;DHT22;19182;41.820;12.808;2023-06-10T08:23:45;27.60;99.90
32839;DHT22;19182;41.820;12.808;2023-06-10T08:26:10;27.80;99.90
32839;DHT22;19182;41.820;12.808;2023-06-10T08:28:36;28.20;99.90
32839;DHT22;19182;41.820;12.808;2023-06-10T08:31:02;28.80;99.90
32839;DHT22;19182;41.820;12.808;2023-06-10T08:33:27;29.10;99.90
32839;DHT22;19182;41.820;12.808;2023-06-10T08:35:53;29.50;99.90
32839;DHT22;19182;41.820;12.808;2023-06-10T08:38:19;29.40;99.90
32839;DHT22;19182;41.820;12.808;2023-06-10T08:40:45;29.60;99.90
32839;DHT22;19182;41.820;12.808;2023-06-10T08:43:31;29.60;99.90
32839;DHT22;19182;41.820;12.808;2023-06-10T08:46:00;29.20;99.90
32839;DHT22;19182;41.820;12.808;2023-06-10T08:48:29;29.20;99.90
32839;DHT22;19182;41.820;12.808;2023-06-10T08:50:57;29.40;99.90
32839;DHT22;19182;41.820;12.808;2023-06-10T08:53:24;29.80;99.90
32839;DHT22;19182;41.820;12.808;2023-06-10T08:55:53;30.20;99.90
32839;DHT22;19182;41.820;12.808;2023-06-10T08:58:20;30.10;99.90
32839;DHT22;19182;41.820;12.808;2023-06-10T09:00:46;30.00;99.90
32839;DHT22;19182;41.820;12.808;2023-06-10T09:03:14;30.00;99.90
32839;DHT22;19182;41.820;12.808;2023-06-10T09:05:39;29.90;99.90
32839;DHT22;19182;41.820;12.808;2023-06-10T09:08:06;29.60;99.90
32839;DHT22;19182;41.820;12.808;2023-06-10T09:10:33;29.50;99.90
32839;DHT22;19182;41.820;12.808;2023-06-10T09:12:59;29.40;99.90
32839;DHT22;19182;41.820;12.808;2023-06-10T09:15:25;29.30;99.90
32839;DHT22;19182;41.820;12.808;2023-06-10T09:17:50;29.60;99.90
32839;DHT22;19182;41.820;12.808;2023-06-10T09:20:17;29.60;99.90
32839;DHT22;19182;41.820;12.808;2023-06-10T09:22:43;29.70;99.90
32839;DHT22;19182;41.820;12.808;2023-06-10T09:25:11;29.90;99.90
32839;DHT22;19182;41.820;12.808;2023-06-10T09:27:51;30.10;99.90
32839;DHT22;19182;41.820;12.808;2023-06-10T09:32:55;30.80;99.90
32839;DHT22;19182;41.820;12.808;2023-06-10T09:35:23;30.70;99.90
32839;DHT22;19182;41.820;12.808;2023-06-10T09:37:51;30.80;99.90
32839;DHT22;19182;41.820;12.808;2023-06-10T09:40:17;30.60;99.90
32839;DHT22;19182;41.820;12.808;2023-06-10T09:42:43;30.70;99.90
32839;DHT22;19182;41.820;12.808;2023-06-10T09:45:09;30.80;99.90
32839;DHT22;19182;41.820;12.808;2023-06-10T09:47:35;30.80;99.90
32839;DHT22;19182;41.820;12.808;2023-06-10T09:50:01;30.70;99.90
32839;DHT22;19182;41.820;12.808;2023-06-10T09:52:28;30.80;99.90
32839;DHT22;19182;41.820;12.808;2023-06-10T09:55:00;30.70;99.90
32839;DHT22;19182;41.820;12.808;2023-06-10T09:57:26;30.50;99.90
32839;DHT22;19182;41.820;12.808;2023-06-10T09:59:55;30.50;99.90
32839;DHT22;19182;41.820;12.808;2023-06-10T10:02:21;30.60;99.90
32839;DHT22;19182;41.820;12.808;2023-06-10T10:04:47;30.50;99.90
32839;DHT22;19182;41.820;12.808;2023-06-10T10:07:13;30.50;99.90
32839;DHT22;19182;41.820;12.808;2023-06-10T10:09:41;30.80;99.90
32839;DHT22;19182;41.820;12.808;2023-06-10T10:12:12;30.60;99.90
32839;DHT22;19182;41.820;12.808;2023-06-10T10:14:39;30.60;99.90
32839;DHT22;19182;41.820;12.808;2023-06-10T10:17:09;30.80;99.90
32839;DHT22;19182;41.820;12.808;2023-06-10T10:19:40;30.90;99.90
32839;DHT22;19182;41.820;12.808;2023-06-10T10:22:08;30.70;99.90
32839;DHT22;19182;41.820;12.808;2023-06-10T10:24:41;30.80;99.90
32839;DHT22;19182;41.820;12.808;2023-06-10T10:27:17;31.00;99.90
32839;DHT22;19182;41.820;12.808;2023-06-10T10:29:47;31.00;99.90
32839;DHT22;19182;41.820;12.808;2023-06-10T10:32:14;31.10;99.90
32839;DHT22;19182;41.820;12.808;2023-06-10T10:37:12;31.40;99.90
32839;DHT22;19182;41.820;12.808;2023-06-10T10:39:37;31.50;99.90
32839;DHT22;19182;41.820;12.808;2023-06-10T10:42:04;31.70;99.90
32839;DHT22;19182;41.820;12.808;2023-06-10T10:44:31;31.70;99.90
32839;DHT22;19182;41.820;12.808;2023-06-10T10:47:02;31.60;99.90
32839;DHT22;19182;41.820;12.808;2023-06-10T10:49:30;31.40;99.90
32839;DHT22;19182;41.820;12.808;2023-06-10T10:52:01;31.50;99.90
32839;DHT22;19182;41.820;12.808;2023-06-10T10:54:35;31.70;99.90
32839;DHT22;19182;41.820;12.808;2023-06-10T10:57:13;31.80;99.90
32839;DHT22;19182;41.820;12.808;2023-06-10T11:02:19;31.10;99.90
32839;DHT22;19182;41.820;12.808;2023-06-10T11:04:57;30.90;99.90
32839;DHT22;19182;41.820;12.808;2023-06-10T11:07:25;30.80;99.90
32839;DHT22;19182;41.820;12.808;2023-06-10T11:10:02;30.90;99.90
32839;DHT22;19182;41.820;12.808;2023-06-10T11:13:01;31.30;99.90
32839;DHT22;19182;41.820;12.808;2023-06-10T11:15:30;31.50;99.90
32839;DHT22;19182;41.820;12.808;2023-06-10T11:21:05;31.30;99.90
32839;DHT22;19182;41.820;12.808;2023-06-10T11:23:34;31.60;99.90
32839;DHT22;19182;41.820;12.808;2023-06-10T11:29:06;32.10;99.90
32839;DHT22;19182;41.820;12.808;2023-06-10T11:31:43;32.10;99.90
32839;DHT22;19182;41.820;12.808;2023-06-10T11:34:09;31.60;99.90
32839;DHT22;19182;41.820;12.808;2023-06-10T11:36:40;31.60;99.90
32839;DHT22;19182;41.820;12.808;2023-06-10T11:39:08;31.00;99.90
32839;DHT22;19182;41.820;12.808;2023-06-10T11:41:35;30.70;99.90
32839;DHT22;19182;41.820;12.808;2023-06-10T11:44:08;30.80;99.90
32839;DHT22;19182;41.820;12.808;2023-06-10T11:46:35;31.10;99.90
32839;DHT22;19182;41.820;12.808;2023-06-10T11:49:02;30.90;99.90
32839;DHT22;19182;41.820;12.808;2023-06-10T11:51:39;30.60;99.90
32839;DHT22;19182;41.820;12.808;2023-06-10T11:54:08;30.20;99.90
32839;DHT22;19182;41.820;12.808;2023-06-10T11:56:34;30.00;99.90
32839;DHT22;19182;41.820;12.808;2023-06-10T11:59:05;30.10;99.90
32839;DHT22;19182;41.820;12.808;2023-06-10T12:01:36;30.50;99.90
32839;DHT22;19182;41.820;12.808;2023-06-10T12:04:04;30.70;99.90
32839;DHT22;19182;41.820;12.808;2023-06-10T12:06:44;30.50;99.90
32839;DHT22;19182;41.820;12.808;2023-06-10T12:09:18;30.50;99.90
32839;DHT22;19182;41.820;12.808;2023-06-10T12:11:45;30.60;99.90
32839;DHT22;19182;41.820;12.808;2023-06-10T12:14:11;30.90;99.90
32839;DHT22;19182;41.820;12.808;2023-06-10T12:16:37;31.30;99.90
32839;DHT22;19182;41.820;12.808;2023-06-10T12:19:04;31.70;99.90
32839;DHT22;19182;41.820;12.808;2023-06-10T12:21:32;31.60;99.90
32839;DHT22;19182;41.820;12.808;2023-06-10T12:24:02;31.50;99.90
32839;DHT22;19182;41.820;12.808;2023-06-10T12:26:44;31.40;99.90
32839;DHT22;19182;41.820;12.808;2023-06-10T12:32:02;31.20;99.90
32839;DHT22;19182;41.820;12.808;2023-06-10T12:34:38;31.40;99.90
32839;DHT22;19182;41.820;12.808;2023-06-10T12:37:06;31.50;99.90
32839;DHT22;19182;41.820;12.808;2023-06-10T12:39:39;31.30;99.90
32839;DHT22;19182;41.820;12.808;2023-06-10T12:42:05;31.20;99.90
32839;DHT22;19182;41.820;12.808;2023-06-10T12:44:38;31.30;99.90
32839;DHT22;19182;41.820;12.808;2023-06-10T12:47:10;31.50;99.90
32839;DHT22;19182;41.820;12.808;2023-06-10T12:49:39;31.60;99.90
32839;DHT22;19182;41.820;12.808;2023-06-10T12:52:05;31.80;99.90
32839;DHT22;19182;41.820;12.808;2023-06-10T12:54:31;31.70;99.90
32839;DHT22;19182;41.820;12.808;2023-06-10T12:56:58;31.50;99.90
32839;DHT22;19182;41.820;12.808;2023-06-10T12:59:24;31.10;99.90
32839;DHT22;19182;41.820;12.808;2023-06-10T13:01:51;30.50;99.90
32839;DHT22;19182;41.820;12.808;2023-06-10T13:04:17;30.30;99.90
32839;DHT22;19182;41.820;12.808;2023-06-10T13:06:44;30.60;99.90
32839;DHT22;19182;41.820;12.808;2023-06-10T13:09:09;30.90;99.90
32839;DHT22;19182;41.820;12.808;2023-06-10T13:11:35;31.00;99.90
32839;DHT22;19182;41.820;12.808;2023-06-10T13:14:02;30.90;99.90
32839;DHT22;19182;41.820;12.808;2023-06-10T13:16:32;30.80;99.90
32839;DHT22;19182;41.820;12.808;2023-06-10T13:18:58;30.60;99.90
32839;DHT22;19182;41.820;12.808;2023-06-10T13:21:24;30.60;99.90
32839;DHT22;19182;41.820;12.808;2023-06-10T13:23:51;30.60;99.90
32839;DHT22;19182;41.820;12.808;2023-06-10T13:26:17;30.80;99.90
32839;DHT22;19182;41.820;12.808;2023-06-10T13:28:45;30.80;99.90
32839;DHT22;19182;41.820;12.808;2023-06-10T13:31:11;31.10;99.90
32839;DHT22;19182;41.820;12.808;2023-06-10T13:33:37;31.00;99.90
32839;DHT22;19182;41.820;12.808;2023-06-10T13:36:04;31.00;99.90
32839;DHT22;19182;41.820;12.808;2023-06-10T13:38:29;29.70;99.90
32839;DHT22;19182;41.820;12.808;2023-06-10T13:40:55;31.10;99.90
32839;DHT22;19182;41.820;12.808;2023-06-10T13:43:21;31.20;99.90
32839;DHT22;19182;41.820;12.808;2023-06-10T13:45:47;31.00;99.90
32839;DHT22;19182;41.820;12.808;2023-06-10T13:48:12;30.40;99.90
32839;DHT22;19182;41.820;12.808;2023-06-10T13:50:38;30.20;99.90
32839;DHT22;19182;41.820;12.808;2023-06-10T13:53:04;30.20;99.90
32839;DHT22;19182;41.820;12.808;2023-06-10T13:55:29;30.20;99.90
32839;DHT22;19182;41.820;12.808;2023-06-10T13:57:55;30.30;99.90
32839;DHT22;19182;41.820;12.808;2023-06-10T14:00:21;30.40;99.90
32839;DHT22;19182;41.820;12.808;2023-06-10T14:02:46;30.50;99.90
32839;DHT22;19182;41.820;12.808;2023-06-10T14:05:12;30.70;99.90
32839;DHT22;19182;41.820;12.808;2023-06-10T14:07:38;30.60;99.90
32839;DHT22;19182;41.820;12.808;2023-06-10T14:10:06;30.60;99.90
32839;DHT22;19182;41.820;12.808;2023-06-10T14:12:34;30.60;99.90
32839;DHT22;19182;41.820;12.808;2023-06-10T14:15:00;30.90;99.90
32839;DHT22;19182;41.820;12.808;2023-06-10T14:17:26;30.80;99.90
32839;DHT22;19182;41.820;12.808;2023-06-10T14:19:51;30.60;99.90
32839;DHT22;19182;41.820;12.808;2023-06-10T14:22:17;30.50;99.90
32839;DHT22;19182;41.820;12.808;2023-06-10T14:24:42;30.60;99.90
32839;DHT22;19182;41.820;12.808;2023-06-10T14:27:08;30.50;99.90
32839;DHT22;19182;41.820;12.808;2023-06-10T14:29:34;30.20;99.90
32839;DHT22;19182;41.820;12.808;2023-06-10T14:32:00;29.80;99.90
32839;DHT22;19182;41.820;12.808;2023-06-10T14:34:26;29.40;99.90
32839;DHT22;19182;41.820;12.808;2023-06-10T14:36:59;29.10;99.90
32839;DHT22;19182;41.820;12.808;2023-06-10T14:39:25;29.10;99.90
32839;DHT22;19182;41.820;12.808;2023-06-10T14:41:51;29.20;99.90
32839;DHT22;19182;41.820;12.808;2023-06-10T14:44:19;29.30;99.90
32839;DHT22;19182;41.820;12.808;2023-06-10T14:46:45;29.50;99.90
32839;DHT22;19182;41.820;12.808;2023-06-10T14:49:11;29.70;99.90
32839;DHT22;19182;41.820;12.808;2023-06-10T14:51:36;29.70;99.90
32839;DHT22;19182;41.820;12.808;2023-06-10T14:54:02;29.50;99.90
32839;DHT22;19182;41.820;12.808;2023-06-10T14:56:28;29.40;99.90
32839;DHT22;19182;41.820;12.808;2023-06-10T14:58:54;29.20;99.90
32839;DHT22;19182;41.820;12.808;2023-06-10T15:01:20;29.00;99.90
32839;DHT22;19182;41.820;12.808;2023-06-10T15:03:46;28.90;99.90
32839;DHT22;19182;41.820;12.808;2023-06-10T15:06:11;29.00;99.90
32839;DHT22;19182;41.820;12.808;2023-06-10T15:08:37;29.00;99.90
32839;DHT22;19182;41.820;12.808;2023-06-10T15:11:03;29.00;99.90
32839;DHT22;19182;41.820;12.808;2023-06-10T15:13:28;28.90;99.90
32839;DHT22;19182;41.820;12.808;2023-06-10T15:15:54;28.70;99.90
32839;DHT22;19182;41.820;12.808;2023-06-10T15:18:21;28.60;99.90
32839;DHT22;19182;41.820;12.808;2023-06-10T15:20:46;28.50;99.90
32839;DHT22;19182;41.820;12.808;2023-06-10T15:23:12;28.50;99.90
32839;DHT22;19182;41.820;12.808;2023-06-10T15:25:38;28.50;99.90
32839;DHT22;19182;41.820;12.808;2023-06-10T15:28:07;28.50;99.90
32839;DHT22;19182;41.820;12.808;2023-06-10T15:30:33;28.50;99.90
32839;DHT22;19182;41.820;12.808;2023-06-10T15:32:59;28.50;99.90